createdAt,value
2023-05-12T00:00:02.997Z,101445.25
2023-05-12T00:02:41.501Z,101439.78
2023-05-12T00:05:14.202Z,101438.03
2023-05-12T00:07:43.963Z,101441.34
2023-05-12T00:10:14.698Z,101437.94
2023-05-12T00:12:44.601Z,101437.78
2023-05-12T00:15:14.649Z,101441.84
2023-05-12T00:17:44.399Z,101434.78
2023-05-12T00:20:17.362Z,101442.88
2023-05-12T00:22:47.283Z,101439.22
2023-05-12T00:25:17.100Z,101439.28
2023-05-12T00:27:46.985Z,101438.50
2023-05-12T00:30:17.364Z,101442.88
2023-05-12T00:32:47.340Z,101441.84
2023-05-12T00:35:20.265Z,101439.31
2023-05-12T00:37:50.186Z,101438.50
2023-05-12T00:40:20.281Z,101442.88
2023-05-12T00:42:50.519Z,101438.44
2023-05-12T00:45:20.716Z,101446.56
2023-05-12T00:47:50.702Z,101447.53
2023-05-12T00:50:23.785Z,101452.88
2023-05-12T00:52:53.678Z,101447.53
2023-05-12T00:55:23.558Z,101442.31
2023-05-12T00:57:53.650Z,101452.03
2023-05-12T01:00:24.914Z,101449.34
2023-05-12T01:02:54.923Z,101451.31
2023-05-12T01:05:29.296Z,101451.31
2023-05-12T01:08:12.987Z,101453.97
2023-05-12T01:10:52.878Z,101457.63
2023-05-12T01:13:24.978Z,101458.56
2023-05-12T01:15:56.431Z,101454.19
2023-05-12T01:18:26.992Z,101457.63
2023-05-12T01:20:59.876Z,101450.75
2023-05-12T01:23:32.117Z,101457.84
2023-05-12T01:26:06.859Z,101456.22
2023-05-12T01:28:37.693Z,101452.59
2023-05-12T01:31:09.694Z,101454.50
2023-05-12T01:33:41.548Z,101457.03
2023-05-12T01:36:11.786Z,101458.63
2023-05-12T01:38:42.618Z,101455.09
2023-05-12T01:41:15.219Z,101461.34
2023-05-12T01:43:45.269Z,101459.63
2023-05-12T01:46:15.900Z,101470.22
2023-05-12T01:48:46.566Z,101458.72
2023-05-12T01:51:18.953Z,101471.88
2023-05-12T01:53:48.961Z,101470.16
2023-05-12T01:56:22.059Z,101467.41
2023-05-12T01:58:52.209Z,101471.72
2023-05-12T02:01:23.455Z,101471.88
2023-05-12T02:03:53.514Z,101477.06
2023-05-12T02:06:26.184Z,101474.44
2023-05-12T02:08:56.251Z,101477.06
2023-05-12T02:11:28.969Z,101469.91
2023-05-12T02:13:59.248Z,101476.97
2023-05-12T02:16:29.205Z,101478.59
2023-05-12T02:18:59.183Z,101487.50
2023-05-12T02:21:29.077Z,101488.38
2023-05-12T02:23:59.059Z,101476.69
2023-05-12T02:26:31.514Z,101483.69
2023-05-12T02:29:01.362Z,101476.59
2023-05-12T02:31:31.450Z,101483.59
2023-05-12T02:34:02.168Z,101494.28
2023-05-12T02:36:33.145Z,101494.28
2023-05-12T02:39:03.154Z,101494.38
2023-05-12T02:41:35.750Z,101495.94
2023-05-12T02:44:05.603Z,101487.91
2023-05-12T02:46:35.868Z,101487.97
2023-05-12T02:49:05.709Z,101481.59
2023-05-12T02:51:35.572Z,101489.34
2023-05-12T02:54:05.786Z,101486.88
2023-05-12T02:56:38.445Z,101488.47
2023-05-12T02:59:08.289Z,101488.78
2023-05-12T03:01:38.208Z,101490.00
2023-05-12T03:04:08.135Z,101494.56
2023-05-12T03:06:37.967Z,101498.19
2023-05-12T03:09:07.770Z,101496.34
2023-05-12T03:11:40.212Z,101498.84
2023-05-12T03:14:10.355Z,101497.16
2023-05-12T03:16:40.279Z,101497.09
2023-05-12T03:19:10.204Z,101493.56
2023-05-12T03:21:40.174Z,101494.38
2023-05-12T03:24:10.443Z,101505.75
2023-05-12T03:26:42.732Z,101498.59
2023-05-12T03:29:12.443Z,101497.75
2023-05-12T03:31:42.376Z,101508.41
2023-05-12T03:34:12.768Z,101501.47
2023-05-12T03:36:43.492Z,101504.97
2023-05-12T03:39:13.581Z,101505.78
2023-05-12T03:41:48.676Z,101513.66
2023-05-12T03:44:21.648Z,101507.47
2023-05-12T03:46:51.599Z,101510.16
2023-05-12T03:49:21.854Z,101508.38
2023-05-12T03:51:53.013Z,101510.16
2023-05-12T03:58:20.602Z,101502.91
2023-05-12T04:00:55.163Z,101507.22
2023-05-12T04:03:25.093Z,101517.72
2023-05-12T04:06:01.014Z,101525.53
2023-05-12T04:08:30.956Z,101519.31
2023-05-12T04:11:01.235Z,101530.94
2023-05-12T04:13:34.046Z,101531.91
2023-05-12T04:16:03.749Z,101535.44
2023-05-12T04:18:33.590Z,101535.50
2023-05-12T04:21:03.475Z,101544.44
2023-05-12T04:23:33.188Z,101534.84
2023-05-12T04:26:02.959Z,101541.75
2023-05-12T04:28:37.093Z,101547.72
2023-05-12T04:31:07.232Z,101546.91
2023-05-12T04:33:37.912Z,101554.09
2023-05-12T04:36:08.962Z,101555.00
2023-05-12T04:38:38.818Z,101551.63
2023-05-12T04:41:08.508Z,101564.06
2023-05-12T04:46:13.636Z,101557.69
2023-05-12T04:48:43.733Z,101557.75
2023-05-12T04:51:13.505Z,101568.28
2023-05-12T04:53:43.226Z,101573.63
2023-05-12T04:56:13.038Z,101582.47
2023-05-12T04:58:45.417Z,101583.38
2023-05-12T05:01:15.150Z,101578.25
2023-05-12T05:03:44.991Z,101584.41
2023-05-12T05:06:15.066Z,101589.75
2023-05-12T05:08:44.908Z,101594.22
2023-05-12T05:11:14.660Z,101597.88
2023-05-12T05:13:47.494Z,101607.41
2023-05-12T05:16:17.332Z,101609.94
2023-05-12T05:18:48.292Z,101605.53
2023-05-12T05:21:18.600Z,101602.13
2023-05-12T05:23:48.707Z,101606.56
2023-05-12T05:26:18.894Z,101609.28
2023-05-12T05:28:55.865Z,101617.25
2023-05-12T05:31:29.103Z,101623.53
2023-05-12T05:34:00.166Z,101625.31
2023-05-12T05:36:31.468Z,101627.25
2023-05-12T05:39:01.808Z,101621.91
2023-05-12T05:41:32.032Z,101631.59
2023-05-12T05:44:05.047Z,101632.44
2023-05-12T05:46:35.231Z,101636.03
2023-05-12T05:49:05.359Z,101636.03
2023-05-12T05:51:35.419Z,101637.97
2023-05-12T05:54:06.203Z,101639.75
2023-05-12T05:56:36.315Z,101642.34
2023-05-12T05:59:10.201Z,101638.13
2023-05-12T06:01:40.814Z,101640.72
2023-05-12T06:04:11.244Z,101639.94
2023-05-12T06:06:41.631Z,101643.38
2023-05-12T06:09:12.793Z,101642.72
2023-05-12T06:11:43.077Z,101656.78
2023-05-12T06:14:15.870Z,101648.00
2023-05-12T06:16:46.030Z,101642.81
2023-05-12T06:19:16.062Z,101643.03
2023-05-12T06:21:46.277Z,101646.72
2023-05-12T06:24:16.275Z,101649.63
2023-05-12T06:26:46.748Z,101651.50
2023-05-12T06:29:20.057Z,101649.03
2023-05-12T06:31:50.704Z,101657.97
2023-05-12T06:34:20.701Z,101657.31
2023-05-12T06:36:51.313Z,101667.09
2023-05-12T06:39:22.706Z,101664.72
2023-05-12T06:41:52.772Z,101658.75
2023-05-12T06:44:27.011Z,101669.53
2023-05-12T06:46:57.001Z,101671.53
2023-05-12T06:49:27.482Z,101666.34
2023-05-12T06:51:57.606Z,101667.41
2023-05-12T06:54:27.978Z,101660.63
2023-05-12T07:03:54.759Z,101669.00
2023-05-12T07:07:03.711Z,101672.56
2023-05-12T07:12:52.585Z,101674.84
2023-05-12T07:15:23.098Z,101676.63
2023-05-12T07:17:53.350Z,101681.19
2023-05-12T07:20:26.072Z,101676.91
2023-05-12T07:22:56.773Z,101683.13
2023-05-12T07:25:26.741Z,101687.84
2023-05-12T07:27:56.659Z,101686.06
2023-05-12T07:30:26.693Z,101692.25
2023-05-12T07:32:56.658Z,101683.56
2023-05-12T07:35:29.472Z,101685.31
2023-05-12T07:37:59.693Z,101682.78
2023-05-12T07:40:29.918Z,101692.59
2023-05-12T07:43:00.154Z,101678.59
2023-05-12T07:45:30.345Z,101685.69
2023-05-12T07:48:00.592Z,101696.38
2023-05-12T07:50:33.371Z,101683.22
2023-05-12T07:53:03.516Z,101695.75
2023-05-12T07:55:33.599Z,101687.09
2023-05-12T07:58:04.058Z,101691.66
2023-05-12T08:00:34.733Z,101689.00
2023-05-12T08:03:04.911Z,101699.69
2023-05-12T08:05:37.716Z,101690.03
2023-05-12T08:08:09.594Z,101690.13
2023-05-12T08:10:39.788Z,101691.13
2023-05-12T08:13:09.905Z,101689.50
2023-05-12T08:15:40.110Z,101688.72
2023-05-12T08:18:10.371Z,101691.47
2023-05-12T08:20:43.129Z,101687.16
2023-05-12T08:23:13.498Z,101696.19
2023-05-12T08:25:44.721Z,101704.22
2023-05-12T08:28:15.200Z,101706.91
2023-05-12T08:30:45.895Z,101700.81
2023-05-12T08:33:16.238Z,101709.94
2023-05-12T08:35:49.236Z,101719.81
2023-05-12T08:38:19.403Z,101710.25
2023-05-12T08:40:56.174Z,101712.94
2023-05-12T08:43:30.270Z,101713.94
2023-05-12T08:46:00.524Z,101715.78
2023-05-12T08:48:31.345Z,101710.53
2023-05-12T08:51:04.359Z,101709.84
2023-05-12T08:53:36.830Z,101713.53
2023-05-12T08:58:43.230Z,101708.41
2023-05-12T09:01:15.180Z,101711.16
2023-05-12T09:03:45.660Z,101725.44
2023-05-12T09:06:20.131Z,101712.31
2023-05-12T09:08:50.342Z,101708.84
2023-05-12T09:11:22.193Z,101713.31
2023-05-12T09:13:57.136Z,101713.34
2023-05-12T09:16:28.525Z,101708.91
2023-05-12T09:18:59.921Z,101707.13
2023-05-12T09:21:32.888Z,101713.34
2023-05-12T09:24:06.321Z,101710.66
2023-05-12T09:26:48.671Z,101708.00
2023-05-12T09:29:30.496Z,101710.66
2023-05-12T09:32:03.061Z,101713.34
2023-05-12T09:34:35.942Z,101708.91
2023-05-12T09:37:09.781Z,101718.66
2023-05-12T09:39:40.083Z,101720.47
2023-05-12T09:42:14.946Z,101713.34
2023-05-12T09:44:47.155Z,101715.13
2023-05-12T09:47:17.907Z,101716.91
2023-05-12T09:49:49.734Z,101721.34
2023-05-12T09:52:23.893Z,101722.22
2023-05-12T09:54:55.413Z,101726.66
2023-05-12T09:57:27.032Z,101719.56
2023-05-12T09:59:57.305Z,101715.06
2023-05-12T10:02:28.303Z,101726.53
2023-05-12T10:05:04.040Z,101723.91
2023-05-12T10:07:37.245Z,101717.63
2023-05-12T10:10:10.372Z,101719.31
2023-05-12T10:12:40.675Z,101722.72
2023-05-12T10:15:13.794Z,101712.78
2023-05-12T10:17:44.531Z,101721.56
2023-05-12T10:20:16.347Z,101713.38
2023-05-12T10:22:49.857Z,101716.78
2023-05-12T10:25:21.308Z,101712.97
2023-05-12T10:27:52.799Z,101711.16
2023-05-12T10:30:23.285Z,101706.63
2023-05-12T10:32:54.060Z,101708.25
2023-05-12T10:35:35.157Z,101703.47
2023-05-12T10:38:09.293Z,101708.97
2023-05-12T10:40:39.394Z,101704.53
2023-05-12T10:43:09.537Z,101694.69
2023-05-12T10:45:40.211Z,101702.41
2023-05-12T10:48:11.351Z,101701.34
2023-05-12T10:50:41.462Z,101691.91
2023-05-12T10:53:14.583Z,101706.94
2023-05-12T10:55:50.604Z,101704.16
2023-05-12T10:58:21.164Z,101698.59
2023-05-12T11:00:55.633Z,101688.56
2023-05-12T11:03:28.928Z,101704.00
2023-05-12T11:06:04.674Z,101696.50
2023-05-12T11:08:40.444Z,101695.72
2023-05-12T11:11:11.113Z,101690.97
2023-05-12T11:13:41.425Z,101702.25
2023-05-12T11:16:15.397Z,101701.56
2023-05-12T11:18:45.636Z,101700.63
2023-05-12T11:21:16.169Z,101701.59
2023-05-12T11:23:53.559Z,101700.69
2023-05-12T11:26:23.825Z,101700.81
2023-05-12T11:28:54.160Z,101706.22
2023-05-12T11:31:25.051Z,101703.69
2023-05-12T11:34:13.395Z,101706.53
2023-05-12T11:36:44.455Z,101702.09
2023-05-12T11:39:24.537Z,101707.19
2023-05-12T11:42:02.132Z,101696.84
2023-05-12T11:44:39.778Z,101692.84
2023-05-12T11:47:14.786Z,101698.34
2023-05-12T11:49:49.619Z,101697.78
2023-05-12T11:52:20.226Z,101702.94
2023-05-12T11:55:00.917Z,101692.75
2023-05-12T11:57:30.930Z,101690.56
2023-05-12T12:00:01.959Z,101692.75
2023-05-12T12:02:36.968Z,101687.28
2023-05-12T12:05:09.213Z,101687.88
2023-05-12T12:07:39.616Z,101684.78
2023-05-12T12:10:21.947Z,101692.75
2023-05-12T12:12:51.873Z,101693.28
2023-05-12T12:15:21.671Z,101686.13
2023-05-12T12:17:51.582Z,101684.00
2023-05-12T12:20:22.088Z,101681.56
2023-05-12T12:22:51.793Z,101694.59
2023-05-12T12:25:24.471Z,101688.25
2023-05-12T12:27:54.073Z,101694.84
2023-05-12T12:30:23.912Z,101697.03
2023-05-12T12:32:53.570Z,101695.41
2023-05-12T12:35:24.551Z,101703.09
2023-05-12T12:37:54.223Z,101690.28
2023-05-12T12:40:26.446Z,101690.94
2023-05-12T12:42:56.208Z,101682.06
2023-05-12T12:45:26.634Z,101677.31
2023-05-12T12:47:57.704Z,101676.03
2023-05-12T12:50:27.533Z,101675.50
2023-05-12T12:52:57.255Z,101674.28
2023-05-12T12:55:29.571Z,101674.91
2023-05-12T12:57:59.230Z,101682.06
2023-05-12T13:00:28.981Z,101681.50
2023-05-12T13:02:59.359Z,101686.63
2023-05-12T13:05:29.108Z,101683.34
2023-05-12T13:07:58.834Z,101681.94
2023-05-12T13:10:31.221Z,101683.13
2023-05-12T13:13:00.997Z,101679.69
2023-05-12T13:15:32.457Z,101684.22
2023-05-12T13:18:04.811Z,101684.22
2023-05-12T13:20:34.593Z,101677.91
2023-05-12T13:23:04.305Z,101675.84
2023-05-12T13:25:36.579Z,101675.41
2023-05-12T13:28:06.290Z,101670.66
2023-05-12T13:30:44.653Z,101673.69
2023-05-12T13:33:14.491Z,101678.06
2023-05-12T13:35:44.491Z,101671.41
2023-05-12T13:38:14.634Z,101687.03
2023-05-12T13:40:47.046Z,101686.25
2023-05-12T13:43:16.857Z,101670.09
2023-05-12T13:45:46.850Z,101676.28
2023-05-12T13:48:17.189Z,101665.34
2023-05-12T13:50:46.905Z,101657.38
2023-05-12T13:53:16.721Z,101669.81
2023-05-12T13:55:49.161Z,101665.44
2023-05-12T13:58:18.890Z,101669.91
2023-05-12T14:00:49.530Z,101658.16
2023-05-12T14:03:19.217Z,101664.44
2023-05-12T14:05:49.059Z,101658.31
2023-05-12T14:08:21.326Z,101662.16
2023-05-12T14:10:53.684Z,101666.63
2023-05-12T14:13:26.816Z,101668.81
2023-05-12T14:15:57.165Z,101667.16
2023-05-12T14:18:28.037Z,101659.06
2023-05-12T14:20:57.899Z,101657.09
2023-05-12T14:23:27.707Z,101657.75
2023-05-12T14:26:00.423Z,101663.13
2023-05-12T14:28:30.191Z,101660.56
2023-05-12T14:30:59.968Z,101658.16
2023-05-12T14:33:29.877Z,101659.97
2023-05-12T14:36:07.129Z,101659.94
2023-05-12T14:38:38.115Z,101661.63
2023-05-12T14:41:10.478Z,101650.91
2023-05-12T14:43:40.556Z,101657.88
2023-05-12T14:46:10.548Z,101657.84
2023-05-12T14:48:40.472Z,101666.72
2023-05-12T14:51:12.163Z,101664.88
2023-05-12T14:53:42.464Z,101665.78
2023-05-12T14:56:15.070Z,101668.47
2023-05-12T14:58:44.814Z,101661.31
2023-05-12T15:01:14.682Z,101666.75
2023-05-12T15:03:44.520Z,101661.47
2023-05-12T15:06:16.613Z,101658.81
2023-05-12T15:08:46.576Z,101668.69
2023-05-12T15:11:18.972Z,101661.63
2023-05-12T15:13:55.976Z,101668.75
2023-05-12T15:16:28.217Z,101661.69
2023-05-12T15:18:58.204Z,101670.66
2023-05-12T15:21:27.944Z,101669.72
2023-05-12T15:24:00.371Z,101676.94
2023-05-12T15:26:34.670Z,101668.91
2023-05-12T15:29:05.966Z,101663.47
2023-05-12T15:31:35.970Z,101662.59
2023-05-12T15:34:05.856Z,101659.06
2023-05-12T15:39:30.747Z,101666.13
2023-05-12T15:42:14.674Z,101663.50
2023-05-12T15:44:51.715Z,101663.53
2023-05-12T16:46:41.748Z,101676.84
2023-05-12T16:49:12.203Z,101669.72
2023-05-12T16:51:42.106Z,101671.53
2023-05-12T16:54:12.128Z,101673.31
2023-05-12T16:56:42.022Z,101675.06
2023-05-12T16:59:11.814Z,101671.53
2023-05-12T17:01:44.347Z,101676.91
2023-05-12T17:04:15.649Z,101670.66
2023-05-12T17:06:45.680Z,101674.22
2023-05-12T17:09:15.589Z,101669.78
2023-05-12T17:11:45.493Z,101676.03
2023-05-12T17:14:17.845Z,101683.16
2023-05-12T17:16:51.725Z,101675.19
2023-05-12T17:19:22.245Z,101684.94
2023-05-12T17:21:52.245Z,101688.50
2023-05-12T17:24:22.016Z,101697.41
2023-05-12T17:26:51.697Z,101700.94
2023-05-12T17:29:21.443Z,101690.31
2023-05-12T17:31:53.963Z,101695.63
2023-05-12T17:34:23.773Z,101700.06
2023-05-12T17:36:54.240Z,101707.16
2023-05-12T17:39:23.894Z,101692.97
2023-05-12T17:41:54.096Z,101700.00
2023-05-12T17:44:24.232Z,101698.28
2023-05-12T17:46:57.108Z,101710.66
2023-05-12T17:49:27.329Z,101707.13
2023-05-12T17:51:57.832Z,101706.25
2023-05-12T17:54:27.677Z,101714.22
2023-05-12T17:56:58.124Z,101711.53
2023-05-12T17:59:28.360Z,101710.66
2023-05-12T18:02:01.000Z,101708.88
2023-05-12T18:04:31.587Z,101717.75
2023-05-12T18:07:01.785Z,101722.16
2023-05-12T18:09:32.104Z,101717.69
2023-05-12T18:12:02.404Z,101725.66
2023-05-12T18:14:32.851Z,101730.09
2023-05-12T18:17:05.675Z,101727.41
2023-05-12T18:19:35.945Z,101732.72
2023-05-12T18:22:06.114Z,101737.13
2023-05-12T18:24:36.327Z,101745.03
2023-05-12T18:27:07.301Z,101744.13
2023-05-12T18:29:37.417Z,101742.31
2023-05-12T18:32:10.054Z,101745.84
2023-05-12T18:34:41.663Z,101750.28
2023-05-12T18:37:12.888Z,101746.72
2023-05-12T18:39:43.082Z,101746.69
2023-05-12T18:42:13.736Z,101743.03
2023-05-12T18:44:43.685Z,101743.00
2023-05-12T18:47:16.397Z,101748.34
2023-05-12T18:49:46.502Z,101746.53
2023-05-12T18:52:16.475Z,101755.31
2023-05-12T18:54:48.836Z,101755.28
2023-05-12T18:57:19.620Z,101762.34
2023-05-12T18:59:49.603Z,101761.41
2023-05-12T19:02:22.308Z,101765.81
2023-05-12T19:04:52.725Z,101764.88
2023-05-12T19:07:22.587Z,101766.56
2023-05-12T19:09:52.534Z,101771.84
2023-05-12T19:12:22.658Z,101767.38
2023-05-12T19:14:52.861Z,101770.91
2023-05-12T19:17:25.383Z,101782.38
2023-05-12T19:19:55.423Z,101782.28
2023-05-12T19:22:26.800Z,101774.25
2023-05-12T19:24:57.108Z,101780.34
2023-05-12T19:27:27.364Z,101789.19
2023-05-12T19:29:57.728Z,101786.44
2023-05-12T19:32:30.434Z,101786.34
2023-05-12T19:35:01.103Z,101790.72
2023-05-12T19:37:31.430Z,101783.56
2023-05-12T19:40:01.310Z,101787.03
2023-05-12T19:42:31.363Z,101790.47
2023-05-12T19:45:01.492Z,101792.19
2023-05-12T19:47:34.474Z,101797.47
2023-05-12T19:50:04.745Z,101793.94
2023-05-12T19:52:35.487Z,101795.66
2023-05-12T19:55:05.840Z,101789.34
2023-05-12T19:57:36.035Z,101800.72
2023-05-12T20:00:06.820Z,101800.69
2023-05-12T20:02:45.166Z,101796.19
2023-05-12T20:05:15.510Z,101803.13
2023-05-12T20:07:45.636Z,101804.81
2023-05-12T20:10:15.755Z,101809.19
2023-05-12T20:12:45.975Z,101815.41
2023-05-12T20:15:19.588Z,101808.34
2023-05-12T20:17:53.499Z,101816.28
2023-05-12T20:20:31.652Z,101815.34
2023-05-12T20:38:58.886Z,101837.63
2023-05-12T20:45:34.504Z,101839.50
2023-05-12T20:48:05.081Z,101839.09
2023-05-12T20:50:34.909Z,101844.94
2023-05-12T20:53:05.172Z,101848.16
2023-05-12T20:55:36.336Z,101843.66
2023-05-12T20:58:06.353Z,101845.28
2023-05-12T21:00:39.314Z,101844.22
2023-05-12T21:03:14.544Z,101841.44
2023-05-12T21:05:48.051Z,101846.75
2023-05-12T21:08:18.516Z,101840.63
2023-05-12T21:10:49.276Z,101851.47
2023-05-12T21:13:19.538Z,101843.66
2023-05-12T21:15:52.367Z,101852.34
2023-05-12T21:18:23.365Z,101850.31
2023-05-12T21:20:53.516Z,101859.00
2023-05-12T21:23:23.689Z,101854.25
2023-05-12T21:25:55.954Z,101864.59
2023-05-12T21:28:26.216Z,101856.72
2023-05-12T21:30:59.065Z,101862.59
2023-05-12T21:33:29.950Z,101859.09
2023-05-12T21:36:00.064Z,101861.56
2023-05-12T21:38:30.131Z,101864.22
2023-05-12T21:41:00.607Z,101864.16
2023-05-12T21:43:31.207Z,101869.44
2023-05-12T21:46:07.844Z,101866.72
2023-05-12T21:48:38.087Z,101867.66
2023-05-12T21:51:08.586Z,101866.94
2023-05-12T21:53:38.822Z,101860.63
2023-05-12T21:56:10.148Z,101863.09
2023-05-12T21:58:40.040Z,101861.34
2023-05-12T22:01:12.616Z,101864.50
2023-05-12T22:03:42.926Z,101872.28
2023-05-12T22:06:13.146Z,101876.03
2023-05-12T22:08:43.481Z,101874.13
2023-05-12T22:11:14.297Z,101874.78
2023-05-12T22:13:44.345Z,101875.63
2023-05-12T22:16:17.022Z,101871.38
2023-05-12T22:18:48.506Z,101877.41
2023-05-12T22:21:18.677Z,101874.31
2023-05-12T22:23:48.846Z,101874.94
2023-05-12T22:26:19.144Z,101876.06
2023-05-12T22:28:49.243Z,101878.72
2023-05-12T22:31:21.901Z,101881.47
2023-05-12T22:33:52.030Z,101883.16
2023-05-12T22:36:22.080Z,101879.63
2023-05-12T22:38:52.094Z,101883.06
2023-05-12T22:41:22.089Z,101895.31
2023-05-12T22:43:51.957Z,101893.63
2023-05-12T22:46:24.551Z,101892.56
2023-05-12T22:48:55.307Z,101889.88
2023-05-12T22:51:25.034Z,101897.88
2023-05-12T22:53:54.994Z,101890.03
2023-05-12T22:56:24.983Z,101890.66
2023-05-12T22:58:54.920Z,101894.81
2023-05-12T23:01:27.717Z,101892.97
2023-05-12T23:03:57.972Z,101883.84
2023-05-12T23:06:28.126Z,101896.09
2023-05-12T23:09:01.881Z,101892.38
2023-05-12T23:11:32.114Z,101896.78
2023-05-12T23:14:02.231Z,101893.03
2023-05-12T23:16:34.861Z,101893.09
2023-05-12T23:19:05.029Z,101886.09
2023-05-12T23:21:35.280Z,101879.84
2023-05-12T23:24:05.538Z,101886.81
2023-05-12T23:26:35.547Z,101888.59
2023-05-12T23:29:05.687Z,101885.91
2023-05-12T23:31:38.302Z,101885.88
2023-05-12T23:34:11.359Z,101887.34
2023-05-12T23:36:41.582Z,101886.22
2023-05-12T23:39:11.537Z,101894.84
2023-05-12T23:41:41.586Z,101890.53
2023-05-12T23:44:11.584Z,101891.41
2023-05-12T23:46:44.260Z,101891.41
2023-05-12T23:49:14.279Z,101893.94
2023-05-12T23:51:57.368Z,101887.69
2023-05-12T23:54:27.269Z,101891.13
2023-05-12T23:56:57.054Z,101884.09
2023-05-12T23:59:27.002Z,101884.78
